Time;durP1;ratioP1;P1;durP2;ratioP2;P2;SDS_P1;SDS_P2;PMS_P1;PMS_P2;Temp;Humidity;BMP_temperature;BMP_pressure;BME280_temperature;BME280_humidity;BME280_pressure;Samples;Min_cycle;Max_cycle;Signal;HPM_P1;HPM_P2
2021/03/30 00:00:53;;;;;;;10.60;4.60;;;;;;;7.91;84.83;95933.22;10481522;28;20035;-76
2021/03/30 00:05:53;;;;;;;9.02;3.90;;;;;;;7.77;85.36;95927.22;10483107;28;20290;-75
2021/03/30 00:10:55;;;;;;;14.57;5.50;;;;;;;7.79;86.70;95917.13;10482413;28;20025;-75
2021/03/30 00:15:55;;;;;;;11.15;5.25;;;;;;;7.63;90.81;95907.84;10480866;28;20028;-75
2021/03/30 00:20:57;;;;;;;9.65;6.00;;;;;;;7.72;87.42;95906.50;10484572;28;20062;-75
2021/03/30 00:25:57;;;;;;;8.90;4.75;;;;;;;7.90;90.16;95892.25;10491379;28;20728;-75
2021/03/30 00:30:57;;;;;;;14.07;5.80;;;;;;;7.92;89.03;95897.38;10491064;28;20032;-75
2021/03/30 00:35:58;;;;;;;14.43;6.17;;;;;;;7.97;87.04;95892.19;10490491;28;20289;-76
2021/03/30 00:40:59;;;;;;;20.43;7.40;;;;;;;7.89;87.36;95889.81;10491146;28;20360;-76
2021/03/30 00:45:59;;;;;;;11.88;6.60;;;;;;;7.79;87.50;95893.03;10490967;28;21076;-76
2021/03/30 00:51:00;;;;;;;12.73;6.03;;;;;;;7.68;89.71;95895.41;10490383;28;20029;-76
2021/03/30 00:56:01;;;;;;;15.20;6.28;;;;;;;7.65;91.79;95895.88;10491203;28;20054;-75
2021/03/30 01:01:01;;;;;;;13.85;6.22;;;;;;;7.57;91.57;95888.16;10489590;28;20054;-74
2021/03/30 01:06:02;;;;;;;15.32;7.28;;;;;;;7.54;92.83;95891.28;10487740;28;20060;-75
2021/03/30 01:11:40;;;;;;;20.35;6.95;;;;;;;7.46;93.32;95891.59;10490395;28;20195;-75
2021/03/30 01:16:48;;;;;;;13.40;6.50;;;;;;;7.24;92.75;95888.56;10448663;28;20048;-76
2021/03/30 01:22:16;;;;;;;18.67;7.43;;;;;;;7.13;91.78;95895.47;10448324;28;20040;-76
2021/03/30 01:27:19;;;;;;;11.63;7.63;;;;;;;7.09;90.59;95891.59;10445904;28;20032;-76
2021/03/30 01:32:31;;;;;;;17.02;7.70;;;;;;;6.57;95.26;95890.06;10445927;28;20033;-77
2021/03/30 01:37:39;;;;;;;15.07;7.38;;;;;;;6.65;97.33;95886.28;10445934;28;20434;-76
2021/03/30 01:42:40;;;;;;;15.23;6.57;;;;;;;6.63;94.52;95893.72;10446005;28;20372;-75
2021/03/30 01:47:42;;;;;;;13.93;6.70;;;;;;;6.31;96.01;95891.91;10444672;28;20040;-76
2021/03/30 01:52:44;;;;;;;12.52;6.55;;;;;;;6.12;98.17;95884.88;10445606;28;20737;-75
2021/03/30 01:57:47;;;;;;;18.05;6.72;;;;;;;5.91;100.00;95889.47;10445952;28;20166;-76
2021/03/30 02:02:48;;;;;;;16.88;6.40;;;;;;;5.77;100.00;95883.41;10445188;28;20035;-76
2021/03/30 02:07:58;;;;;;;15.45;7.97;;;;;;;6.00;100.00;95876.75;10447016;28;20071;-76
2021/03/30 02:13:01;;;;;;;15.90;6.40;;;;;;;6.01;100.00;95866.88;10448499;28;20444;-76
2021/03/30 02:18:05;;;;;;;14.10;5.93;;;;;;;5.78;99.21;95863.72;10450550;28;20025;-76
2021/03/30 02:23:13;;;;;;;13.18;5.88;;;;;;;5.93;100.00;95855.41;10448126;28;20476;-75
2021/03/30 02:28:21;;;;;;;15.98;6.47;;;;;;;5.94;98.35;95864.22;10446320;28;20051;-76
2021/03/30 02:33:23;;;;;;;12.53;6.33;;;;;;;6.03;95.80;95862.97;10445866;28;20036;-76
2021/03/30 02:38:24;;;;;;;12.35;6.18;;;;;;;5.91;98.37;95870.81;10445735;28;20090;-76
2021/03/30 02:43:26;;;;;;;11.88;6.65;;;;;;;5.82;99.40;95874.78;10445474;28;20032;-76
2021/03/30 02:48:28;;;;;;;14.45;6.30;;;;;;;5.89;98.25;95864.88;10444825;28;20504;-76
2021/03/30 02:53:28;;;;;;;14.60;5.82;;;;;;;5.89;98.27;95864.03;10446157;28;20094;-75
2021/03/30 02:58:30;;;;;;;17.42;7.00;;;;;;;5.76;98.37;95862.28;10446840;28;20029;-75
2021/03/30 03:03:31;;;;;;;12.65;5.70;;;;;;;5.70;97.94;95871.16;10446050;28;20033;-75
2021/03/30 03:08:33;;;;;;;14.32;5.97;;;;;;;5.67;99.44;95874.25;10441626;28;20041;-75
2021/03/30 03:13:36;;;;;;;16.75;8.23;;;;;;;5.67;96.47;95874.25;10442397;28;20036;-75
2021/03/30 03:18:38;;;;;;;8.45;5.78;;;;;;;5.39;97.96;95878.09;10441991;28;20760;-75
2021/03/30 03:23:41;;;;;;;13.43;7.18;;;;;;;5.34;97.94;95875.22;10440135;28;20861;-75
2021/03/30 03:28:43;;;;;;;8.43;5.70;;;;;;;5.19;99.04;95878.97;10442013;28;20029;-75
2021/03/30 03:33:43;;;;;;;14.60;5.85;;;;;;;5.18;100.00;95880.00;10441334;28;20056;-75
2021/03/30 03:38:44;;;;;;;12.33;5.87;;;;;;;5.25;100.00;95880.78;10441469;28;20117;-76
2021/03/30 03:43:44;;;;;;;11.27;6.40;;;;;;;5.23;100.00;95880.19;10441478;28;20303;-75
2021/03/30 03:48:45;;;;;;;9.73;5.53;;;;;;;5.11;100.00;95881.88;10440597;28;20637;-76
2021/03/30 03:53:48;;;;;;;14.75;5.82;;;;;;;5.08;100.00;95877.78;10440773;28;20028;-75
2021/03/30 03:58:53;;;;;;;8.93;5.75;;;;;;;5.05;100.00;95888.88;10440688;28;20032;-75
2021/03/30 04:04:00;;;;;;;34.20;7.93;;;;;;;5.09;100.00;95891.91;10440386;28;20041;-76
2021/03/30 04:09:04;;;;;;;23.00;7.60;;;;;;;5.07;100.00;95900.13;10440258;28;20049;-76
2021/03/30 04:14:05;;;;;;;15.70;7.45;;;;;;;5.06;100.00;95903.78;10439929;28;20090;-76
2021/03/30 04:19:12;;;;;;;13.73;7.28;;;;;;;4.95;100.00;95905.28;10440532;28;20090;-76
2021/03/30 04:24:13;;;;;;;14.52;8.60;;;;;;;5.00;100.00;95917.16;10438501;28;20037;-76
2021/03/30 04:29:13;;;;;;;38.25;8.75;;;;;;;5.03;100.00;95911.41;10440220;28;20029;-75
2021/03/30 04:34:13;;;;;;;20.02;7.32;;;;;;;5.13;100.00;95923.28;10440222;28;20501;-76
2021/03/30 04:39:14;;;;;;;22.97;8.40;;;;;;;5.27;100.00;95917.88;10440290;28;20037;-76
2021/03/30 04:44:14;;;;;;;28.38;7.18;;;;;;;5.18;100.00;95921.81;10439246;28;20033;-76
2021/03/30 04:49:14;;;;;;;35.85;8.43;;;;;;;5.23;100.00;95922.00;10438887;28;20056;-76
2021/03/30 04:54:15;;;;;;;39.83;10.50;;;;;;;5.13;100.00;95923.28;10438699;28;20035;-72
2021/03/30 04:59:15;;;;;;;26.65;9.10;;;;;;;5.01;100.00;95921.44;10437652;28;20083;-72
2021/03/30 05:04:17;;;;;;;23.63;8.60;;;;;;;5.13;100.00;95923.28;10438544;28;20380;-72
2021/03/30 05:09:18;;;;;;;22.55;8.18;;;;;;;5.46;100.00;95924.19;10441697;28;20491;-72
2021/03/30 05:14:18;;;;;;;26.08;8.57;;;;;;;5.59;97.66;95921.44;10444529;28;20036;-72
2021/03/30 05:19:18;;;;;;;15.33;7.13;;;;;;;5.73;95.56;95916.06;10458284;28;20097;-72
2021/03/30 05:24:19;;;;;;;40.67;9.57;;;;;;;6.16;96.04;95928.78;10464263;28;20321;-72
2021/03/30 05:29:19;;;;;;;21.90;9.00;;;;;;;6.87;93.34;95928.63;10485198;28;20024;-72
2021/03/30 05:34:19;;;;;;;19.47;7.73;;;;;;;7.63;83.00;95929.25;10486566;28;20115;-72
2021/03/30 05:39:20;;;;;;;17.63;6.97;;;;;;;8.48;77.07;95920.25;10486432;28;20024;-72
2021/03/30 05:44:20;;;;;;;23.27;7.57;;;;;;;9.29;70.76;95924.25;10486825;28;20038;-72
2021/03/30 05:49:21;;;;;;;15.93;6.75;;;;;;;10.21;65.67;95933.31;10485953;28;20063;-72
2021/03/30 05:54:22;;;;;;;18.87;7.83;;;;;;;10.69;63.86;95929.34;10485987;28;20071;-73
2021/03/30 05:59:23;;;;;;;19.42;6.35;;;;;;;11.61;56.69;95931.75;10485643;28;20270;-71
2021/03/30 06:04:24;;;;;;;23.20;8.40;;;;;;;12.14;54.12;95929.41;10485233;28;20036;-71
2021/03/30 06:09:24;;;;;;;23.27;6.78;;;;;;;12.67;52.96;95929.66;10485814;28;20040;-72
2021/03/30 06:14:44;;;;;;;12.83;6.70;;;;;;;13.45;50.72;95931.84;10485463;28;20059;-71
2021/03/30 06:19:49;;;;;;;24.55;8.20;;;;;;;13.99;48.40;95925.31;10483539;28;20029;-71
2021/03/30 06:24:53;;;;;;;24.20;7.30;;;;;;;14.64;44.07;95932.25;10443838;28;20063;-72
2021/03/30 06:29:58;;;;;;;31.55;8.77;;;;;;;15.08;44.27;95928.19;10443312;28;20032;-72
2021/03/30 06:35:14;;;;;;;14.70;8.35;;;;;;;15.24;43.18;95926.25;10443204;28;20456;-73
2021/03/30 06:40:18;;;;;;;22.40;9.38;;;;;;;15.46;42.49;95921.38;10442817;28;20033;-72
2021/03/30 06:45:21;;;;;;;22.08;8.55;;;;;;;15.79;43.00;95918.28;10441214;28;20116;-72
2021/03/30 06:50:36;;;;;;;24.85;8.77;;;;;;;16.46;39.86;95912.53;10441383;28;20041;-72
2021/03/30 06:55:49;;;;;;;16.50;7.68;;;;;;;16.91;39.51;95908.69;10441037;28;20804;-72
2021/03/30 07:00:50;;;;;;;22.48;6.68;;;;;;;17.08;36.98;95912.91;10442228;28;20029;-72
2021/03/30 07:05:55;;;;;;;15.05;5.47;;;;;;;18.38;34.56;95904.91;10442074;28;20049;-72
2021/03/30 07:10:55;;;;;;;9.65;4.88;;;;;;;18.75;32.97;95912.25;10460057;28;20036;-72
2021/03/30 07:16:08;;;;;;;14.18;4.63;;;;;;;19.86;31.16;95906.25;10476563;28;20036;-72
2021/03/30 07:21:18;;;;;;;12.98;5.25;;;;;;;20.87;29.68;95906.25;10454111;28;20047;-72
2021/03/30 07:26:22;;;;;;;10.65;5.03;;;;;;;20.30;30.04;95906.69;10479527;28;20108;-72
2021/03/30 07:31:46;;;;;;;22.52;6.07;;;;;;;21.74;28.64;95905.97;10445241;28;20039;-72
2021/03/30 07:36:57;;;;;;;7.25;4.50;;;;;;;22.02;27.09;95908.47;10477186;28;20042;-71
2021/03/30 07:41:57;;;;;;;12.75;4.28;;;;;;;23.10;25.71;95904.38;10459098;28;20024;-72
2021/03/30 07:46:58;;;;;;;44.10;6.78;;;;;;;22.60;26.66;95906.47;10445485;28;20028;-73
2021/03/30 07:52:22;;;;;;;11.45;4.55;;;;;;;22.81;24.91;95901.16;10445545;28;20662;-73
2021/03/30 07:57:54;;;;;;;25.23;5.88;;;;;;;22.96;26.35;95910.84;10450241;28;20089;-72
2021/03/30 08:03:08;;;;;;;10.57;4.72;;;;;;;23.59;23.96;95913.16;10485597;28;20028;-72
2021/03/30 08:08:22;;;;;;;14.18;4.53;;;;;;;24.31;23.72;95905.09;10461832;28;20080;-74
2021/03/30 08:13:32;;;;;;;12.23;4.72;;;;;;;23.45;25.46;95913.34;10447224;28;20514;-72
2021/03/30 08:18:40;;;;;;;15.00;4.45;;;;;;;24.31;24.66;95902.34;10439956;28;20021;-73
2021/03/30 08:23:53;;;;;;;12.77;4.00;;;;;;;23.93;24.57;95902.38;10441696;28;20515;-72
2021/03/30 08:29:07;;;;;;;5.15;2.58;;;;;;;24.18;23.81;95901.47;10439828;28;20044;-72
2021/03/30 08:34:17;;;;;;;11.38;3.80;;;;;;;23.56;23.55;95902.84;10441397;28;20029;-72
2021/03/30 08:39:18;;;;;;;13.35;5.35;;;;;;;21.66;25.74;95902.06;10455756;28;20486;-72
2021/03/30 08:44:29;;;;;;;10.95;5.10;;;;;;;20.92;26.09;95902.59;10486742;28;20037;-71
2021/03/30 08:49:43;;;;;;;22.45;5.38;;;;;;;21.43;26.49;95903.22;10461258;28;20040;-71
2021/03/30 08:54:54;;;;;;;5.47;3.00;;;;;;;23.17;25.15;95910.19;10459538;28;20036;-72
2021/03/30 08:59:55;;;;;;;7.18;3.08;;;;;;;21.04;24.04;95893.81;10489230;28;20016;-72
2021/03/30 09:04:56;;;;;;;5.20;2.55;;;;;;;19.82;27.36;95899.78;10459736;28;20044;-72
2021/03/30 09:10:05;;;;;;;5.25;3.10;;;;;;;17.38;29.54;95906.34;10451381;28;20130;-72
2021/03/30 09:15:10;;;;;;;11.88;4.15;;;;;;;18.64;29.46;95907.25;10489187;28;20078;-72
2021/03/30 09:20:17;;;;;;;5.40;2.85;;;;;;;22.66;26.21;95891.50;10472805;28;20131;-73
2021/03/30 09:30:20;;;;;;;5.45;2.45;;;;;;;19.86;27.32;95902.72;10478493;28;20064;-72
2021/03/30 09:35:24;;;;;;;10.80;3.63;;;;;;;18.91;29.18;95906.59;10459887;28;20491;-72
2021/03/30 09:40:28;;;;;;;4.75;3.05;;;;;;;17.58;29.54;95893.63;10487966;28;20818;-72
2021/03/30 09:45:30;;;;;;;8.10;3.83;;;;;;;17.17;29.58;95886.72;10486400;28;20028;-72
2021/03/30 09:50:31;;;;;;;8.98;3.40;;;;;;;18.47;30.12;95877.84;10446160;28;20036;-73
2021/03/30 09:55:32;;;;;;;8.93;3.60;;;;;;;22.24;25.93;95858.25;10445150;28;20025;-73
2021/03/30 10:00:34;;;;;;;8.30;3.30;;;;;;;23.47;25.07;95852.66;10467632;28;20480;-72
2021/03/30 10:05:36;;;;;;;6.80;3.00;;;;;;;24.82;23.63;95846.53;10448480;28;20841;-71
2021/03/30 10:10:48;;;;;;;6.10;2.78;;;;;;;27.23;20.93;95833.97;10489089;28;20352;-72
2021/03/30 10:15:50;;;;;;;10.98;3.20;;;;;;;28.19;19.81;95828.44;10490050;28;20020;-72
2021/03/30 10:20:57;;;;;;;7.18;3.08;;;;;;;29.35;18.66;95820.53;10489869;28;20126;-72
2021/03/30 10:25:57;;;;;;;8.27;2.55;;;;;;;29.39;18.04;95813.06;10490272;28;20609;-72
2021/03/30 10:31:17;;;;;;;7.23;3.40;;;;;;;29.69;19.84;95815.16;10489052;28;20035;-72
2021/03/30 10:36:18;;;;;;;4.82;2.47;;;;;;;28.39;18.46;95816.25;10487921;28;20024;-72
2021/03/30 10:41:18;;;;;;;6.00;2.63;;;;;;;27.15;20.19;95799.88;10489555;28;20021;-73
2021/03/30 10:46:20;;;;;;;6.83;3.17;;;;;;;28.08;20.29;95793.09;10488287;28;20103;-73
2021/03/30 10:51:20;;;;;;;8.85;3.10;;;;;;;28.93;18.70;95803.53;10489201;28;20499;-73
2021/03/30 10:56:21;;;;;;;14.33;2.87;;;;;;;28.94;18.33;95787.72;10488853;28;20020;-73
2021/03/30 11:01:22;;;;;;;6.75;3.05;;;;;;;27.51;19.71;95784.22;10451021;28;20025;-73
2021/03/30 11:06:22;;;;;;;14.35;3.35;;;;;;;25.29;21.03;95782.13;10482228;28;20082;-73
2021/03/30 11:11:23;;;;;;;8.23;2.97;;;;;;;23.64;22.43;95789.47;10470206;28;20037;-73
2021/03/30 11:16:26;;;;;;;4.80;2.80;;;;;;;21.82;23.20;95798.47;10483647;28;20349;-73
2021/03/30 11:21:27;;;;;;;5.22;3.55;;;;;;;19.92;27.48;95779.53;10484107;28;20275;-73
2021/03/30 11:26:27;;;;;;;5.10;2.80;;;;;;;18.25;27.89;95783.97;10484493;28;20082;-72
2021/03/30 11:36:31;;;;;;;7.60;3.15;;;;;;;17.07;29.57;95787.13;10442238;28;20082;-72
2021/03/30 11:41:31;;;;;;;10.52;2.97;;;;;;;16.32;30.11;95774.00;10441912;28;20488;-72
2021/03/30 11:46:32;;;;;;;13.43;3.63;;;;;;;16.54;30.16;95768.13;10441072;28;20028;-72
2021/03/30 11:51:32;;;;;;;7.32;3.47;;;;;;;16.91;31.60;95755.81;10447861;28;20040;-73
2021/03/30 11:56:33;;;;;;;9.00;2.80;;;;;;;17.04;30.19;95757.84;10481555;28;20181;-73
2021/03/30 12:01:33;;;;;;;7.10;2.40;;;;;;;16.20;30.51;95739.91;10483453;28;20359;-73
2021/03/30 12:06:34;;;;;;;4.33;2.60;;;;;;;16.35;30.84;95738.16;10482527;28;20072;-73
2021/03/30 12:11:34;;;;;;;10.90;3.17;;;;;;;16.25;30.53;95738.25;10482673;28;20036;-73
2021/03/30 12:16:34;;;;;;;6.43;3.08;;;;;;;15.90;31.49;95719.28;10482918;28;20057;-73
2021/03/30 12:21:35;;;;;;;3.13;2.30;;;;;;;15.60;30.97;95725.66;10490381;28;20066;-73
2021/03/30 12:26:36;;;;;;;15.27;4.30;;;;;;;15.40;31.33;95713.88;10489878;28;20716;-73
2021/03/30 12:31:36;;;;;;;9.57;3.28;;;;;;;15.37;32.19;95698.19;10489740;28;20028;-73
2021/03/30 12:36:37;;;;;;;13.38;3.05;;;;;;;15.23;31.85;95695.28;10489980;28;20036;-73
2021/03/30 12:41:37;;;;;;;23.57;4.40;;;;;;;14.61;32.87;95691.97;10490563;28;20107;-73
2021/03/30 12:46:38;;;;;;;6.95;3.20;;;;;;;14.75;33.40;95693.06;10488591;28;20032;-73
2021/03/30 12:51:39;;;;;;;3.87;2.67;;;;;;;14.47;32.95;95689.84;10489535;28;20147;-73
2021/03/30 12:56:39;;;;;;;5.45;2.88;;;;;;;14.55;32.28;95680.34;10489552;28;20033;-73
2021/03/30 13:01:39;;;;;;;5.63;2.97;;;;;;;14.67;32.21;95674.66;10488498;28;20035;-73
2021/03/30 13:06:40;;;;;;;8.07;2.80;;;;;;;14.59;31.69;95667.88;10489242;28;20053;-72
2021/03/30 13:11:40;;;;;;;7.83;2.60;;;;;;;14.84;32.48;95668.94;10489135;28;20271;-73
2021/03/30 13:16:40;;;;;;;11.07;3.23;;;;;;;14.95;31.38;95675.09;10489954;28;20032;-72
2021/03/30 13:21:41;;;;;;;8.03;3.70;;;;;;;14.78;32.03;95656.50;10488744;28;20035;-73
2021/03/30 13:26:41;;;;;;;12.83;4.10;;;;;;;14.95;31.70;95658.88;10488088;28;20660;-72
2021/03/30 13:31:42;;;;;;;6.00;2.83;;;;;;;14.35;31.73;95662.28;10486865;28;20047;-72
2021/03/30 13:36:42;;;;;;;4.35;2.70;;;;;;;14.41;32.08;95655.78;10487956;28;20834;-72
2021/03/30 13:41:55;;;;;;;4.50;3.37;;;;;;;14.20;31.44;95655.00;10487928;28;20529;-72
2021/03/30 13:46:58;;;;;;;21.73;4.38;;;;;;;14.07;32.34;95645.56;10487642;28;20028;-72
2021/03/30 13:51:59;;;;;;;10.63;3.05;;;;;;;14.02;32.23;95638.28;10487450;28;20033;-72
2021/03/30 13:56:59;;;;;;;10.75;2.90;;;;;;;13.92;32.50;95645.59;10487393;28;20029;-73
2021/03/30 14:02:00;;;;;;;7.35;3.00;;;;;;;13.76;32.78;95637.50;10487424;28;20032;-72
2021/03/30 14:07:00;;;;;;;8.80;3.03;;;;;;;13.66;33.16;95640.19;10485959;28;20396;-72
2021/03/30 14:12:04;;;;;;;7.80;3.63;;;;;;;13.57;33.33;95641.81;10465456;28;20037;-73
2021/03/30 14:17:23;;;;;;;4.28;2.97;;;;;;;13.63;33.56;95635.31;10444709;28;20048;-73
2021/03/30 14:22:34;;;;;;;8.77;4.60;;;;;;;13.51;33.72;95641.00;10464975;28;20021;-72
2021/03/30 14:27:34;;;;;;;9.23;3.28;;;;;;;13.35;33.63;95637.47;10486136;28;20392;-72
2021/03/30 14:32:36;;;;;;;12.23;2.73;;;;;;;13.22;33.91;95637.97;10483841;28;20055;-72
2021/03/30 14:37:36;;;;;;;9.23;3.55;;;;;;;13.15;34.25;95628.22;10486365;28;20267;-72
2021/03/30 14:42:36;;;;;;;10.27;5.22;;;;;;;13.13;36.01;95635.81;10485972;28;20030;-72
2021/03/30 14:58:15;;;;;;;12.13;4.13;;;;;;;12.81;35.01;95634.09;10485265;28;20494;-72
2021/03/30 15:03:35;;;;;;;7.22;3.25;;;;;;;12.78;35.03;95633.81;10490546;28;20029;-72
2021/03/30 15:08:35;;;;;;;8.55;3.47;;;;;;;12.69;34.98;95638.91;10454523;28;20508;-72
2021/03/30 15:13:35;;;;;;;7.87;3.63;;;;;;;12.63;35.31;95639.97;10479373;28;20032;-72
2021/03/30 15:18:36;;;;;;;7.27;3.40;;;;;;;12.52;35.60;95633.72;10467605;28;20036;-72
2021/03/30 15:23:36;;;;;;;8.63;4.03;;;;;;;12.37;36.03;95645.22;10469524;28;20058;-72
2021/03/30 15:28:36;;;;;;;6.70;3.97;;;;;;;12.20;36.54;95645.41;10485775;28;20028;-72
2021/03/30 15:33:37;;;;;;;11.57;3.83;;;;;;;12.05;36.43;95656.09;10482747;28;20066;-72
2021/03/30 15:38:38;;;;;;;7.07;3.50;;;;;;;11.78;36.81;95660.47;10486988;28;20785;-72
2021/03/30 15:43:41;;;;;;;6.65;4.03;;;;;;;11.74;37.29;95662.03;10485678;28;20026;-72
2021/03/30 15:48:41;;;;;;;12.13;3.80;;;;;;;11.77;37.35;95658.81;10486093;28;20028;-72
2021/03/30 15:53:47;;;;;;;11.67;3.73;;;;;;;11.68;38.14;95660.38;10475769;28;20024;-73
2021/03/30 15:58:47;;;;;;;14.70;3.70;;;;;;;11.61;37.73;95657.91;10447876;28;20020;-72
2021/03/30 16:03:48;;;;;;;12.70;3.77;;;;;;;11.43;38.24;95661.78;10444503;28;20033;-72
2021/03/30 16:08:48;;;;;;;6.73;3.93;;;;;;;11.41;38.28;95660.41;10445372;28;20303;-72
2021/03/30 16:13:49;;;;;;;6.83;4.20;;;;;;;11.24;38.44;95658.63;10482821;28;20464;-72
2021/03/30 16:18:49;;;;;;;5.75;3.67;;;;;;;11.26;38.81;95664.59;10472468;28;20434;-73
2021/03/30 16:23:49;;;;;;;7.10;4.00;;;;;;;11.19;38.59;95660.47;10473577;28;20566;-72
2021/03/30 16:28:50;;;;;;;9.93;4.57;;;;;;;11.03;38.56;95671.06;10466604;28;20290;-72
2021/03/30 16:33:51;;;;;;;7.00;4.00;;;;;;;10.86;39.06;95667.66;10481989;28;20411;-73
2021/03/30 16:38:51;;;;;;;7.60;5.20;;;;;;;10.75;39.73;95677.50;10476386;28;20074;-73
2021/03/30 16:43:52;;;;;;;12.23;4.78;;;;;;;10.67;39.46;95688.69;10467102;28;20025;-71
2021/03/30 16:48:52;;;;;;;12.80;4.45;;;;;;;10.55;39.70;95684.25;10475466;28;20027;-72
2021/03/30 16:53:56;;;;;;;10.33;4.97;;;;;;;10.55;39.96;95691.50;10481109;28;20067;-72
2021/03/30 16:58:56;;;;;;;10.95;5.82;;;;;;;10.48;40.46;95693.53;10481907;28;20339;-72
2021/03/30 17:03:57;;;;;;;13.25;6.18;;;;;;;10.32;41.04;95695.19;10482650;28;20081;-77
2021/03/30 17:08:57;;;;;;;23.77;7.03;;;;;;;10.16;41.63;95702.19;10489032;28;20041;-77
2021/03/30 17:13:57;;;;;;;14.13;6.13;;;;;;;10.05;42.36;95699.38;10490543;28;20123;-80
2021/03/30 17:18:59;;;;;;;7.80;5.32;;;;;;;9.91;42.92;95704.25;10492015;28;20070;-77
2021/03/30 17:24:00;;;;;;;11.10;5.68;;;;;;;9.88;43.16;95712.00;10487385;28;20028;-78
2021/03/30 17:29:01;;;;;;;13.63;5.47;;;;;;;9.85;44.34;95717.84;10465548;28;20025;-77
2021/03/30 17:34:02;;;;;;;17.35;6.88;;;;;;;9.67;44.56;95724.25;10447151;28;20025;-77
2021/03/30 17:39:06;;;;;;;10.60;5.40;;;;;;;9.55;45.54;95735.06;10471188;28;20413;-77
2021/03/30 17:44:07;;;;;;;13.15;6.60;;;;;;;9.45;46.13;95732.22;10468497;28;20067;-77
2021/03/30 17:49:07;;;;;;;9.82;6.95;;;;;;;9.45;46.31;95734.91;10487741;28;20021;-77
2021/03/30 17:54:08;;;;;;;11.82;6.68;;;;;;;9.33;46.89;95743.00;10470085;28;20064;-76
2021/03/30 17:59:08;;;;;;;15.57;9.57;;;;;;;9.13;47.98;95757.63;10485483;28;20017;-78
2021/03/30 18:04:09;;;;;;;18.38;9.35;;;;;;;9.15;47.64;95754.72;10462275;28;20044;-77
2021/03/30 18:09:09;;;;;;;19.10;9.43;;;;;;;8.98;49.17;95757.34;10468376;28;20053;-77
2021/03/30 18:14:10;;;;;;;19.40;10.13;;;;;;;8.85;48.83;95769.16;10446439;28;21097;-77
2021/03/30 18:19:11;;;;;;;21.73;10.20;;;;;;;8.83;49.95;95760.50;10445926;28;20849;-77
2021/03/30 18:24:12;;;;;;;17.40;9.38;;;;;;;8.67;48.83;95754.03;10446365;28;20028;-76
2021/03/30 18:29:15;;;;;;;17.17;9.73;;;;;;;8.60;49.03;95748.78;10480436;28;20032;-73
2021/03/30 18:34:15;;;;;;;17.38;9.15;;;;;;;8.44;49.98;95757.50;10483534;28;20029;-73
2021/03/30 18:39:16;;;;;;;18.92;9.50;;;;;;;8.30;50.94;95760.44;10485082;28;20016;-72
2021/03/30 18:44:16;;;;;;;17.77;9.17;;;;;;;8.23;51.78;95766.94;10481350;28;20056;-72
2021/03/30 18:49:17;;;;;;;16.88;8.40;;;;;;;8.32;54.32;95781.63;10484419;28;20064;-73
2021/03/30 18:54:21;;;;;;;18.63;10.32;;;;;;;8.33;53.49;95769.84;10484002;28;20373;-73
2021/03/30 18:59:25;;;;;;;20.77;13.00;;;;;;;8.12;55.22;95781.94;10482492;28;20028;-74
2021/03/30 19:04:25;;;;;;;12.73;8.60;;;;;;;8.08;53.85;95786.13;10484911;28;20036;-73
2021/03/30 19:09:26;;;;;;;20.30;9.83;;;;;;;7.92;53.99;95787.63;10485024;28;20032;-73
2021/03/30 19:14:26;;;;;;;20.83;10.90;;;;;;;7.93;54.77;95794.63;10483890;28;20030;-74
2021/03/30 19:19:26;;;;;;;17.70;9.97;;;;;;;7.74;54.93;95799.22;10462487;28;20032;-73
2021/03/30 19:24:27;;;;;;;16.60;9.60;;;;;;;7.69;55.18;95795.38;10443252;28;20043;-74
2021/03/30 19:29:27;;;;;;;21.10;11.30;;;;;;;7.43;57.34;95801.91;10459891;28;20036;-77
2021/03/30 19:34:34;;;;;;;26.53;11.37;;;;;;;7.50;60.42;95796.47;10470849;28;20032;-77
2021/03/30 19:39:35;;;;;;;21.45;9.75;;;;;;;7.55;60.16;95801.97;10483420;28;21031;-78
2021/03/30 19:44:36;;;;;;;30.10;13.27;;;;;;;7.42;60.62;95800.28;10480567;28;20034;-77
2021/03/30 19:49:36;;;;;;;28.42;11.80;;;;;;;7.35;61.92;95795.03;10481740;28;20039;-77
2021/03/30 19:54:37;;;;;;;17.27;10.82;;;;;;;7.17;65.00;95793.22;10484127;28;20028;-77
2021/03/30 19:59:38;;;;;;;22.67;11.32;;;;;;;6.80;69.37;95801.25;10478154;28;20033;-77
2021/03/30 20:04:38;;;;;;;20.75;11.70;;;;;;;6.54;69.65;95798.88;10485877;28;20032;-77
2021/03/30 20:09:39;;;;;;;21.08;11.93;;;;;;;6.34;70.97;95781.19;10479266;28;20041;-77
2021/03/30 20:14:40;;;;;;;29.52;14.80;;;;;;;6.09;72.29;95784.69;10476744;28;20024;-75
2021/03/30 20:19:40;;;;;;;33.10;15.97;;;;;;;6.01;72.06;95790.28;10472434;28;20109;-76
2021/03/30 20:24:40;;;;;;;23.53;12.33;;;;;;;5.99;72.00;95787.84;10481790;28;20029;-76
2021/03/30 20:29:41;;;;;;;20.35;12.05;;;;;;;5.98;73.58;95780.06;10480751;28;20020;-76
2021/03/30 20:34:41;;;;;;;20.90;11.75;;;;;;;5.96;73.61;95774.13;10479112;28;20039;-75
2021/03/30 20:39:42;;;;;;;30.00;14.87;;;;;;;5.91;74.42;95766.75;10485478;28;20031;-76
2021/03/30 20:44:42;;;;;;;24.77;12.38;;;;;;;5.95;74.94;95770.63;10489280;28;20298;-76
2021/03/30 20:49:43;;;;;;;28.27;14.30;;;;;;;5.89;75.97;95776.84;10487510;28;20028;-76
2021/03/30 20:54:43;;;;;;;21.25;13.57;;;;;;;5.98;73.97;95775.53;10487832;28;20046;-76
2021/03/30 20:59:43;;;;;;;28.13;15.20;;;;;;;6.05;75.71;95777.34;10483035;28;20031;-76
2021/03/30 21:04:44;;;;;;;40.67;16.03;;;;;;;5.97;74.75;95779.25;10448197;28;20499;-75
2021/03/30 21:09:44;;;;;;;27.17;13.90;;;;;;;5.92;72.41;95780.91;10470362;28;20294;-76
2021/03/30 21:14:44;;;;;;;26.80;14.00;;;;;;;5.76;74.00;95792.94;10488361;28;20028;-79
2021/03/30 21:19:45;;;;;;;21.77;13.43;;;;;;;5.70;72.20;95780.47;10488563;28;20032;-79
2021/03/30 21:24:45;;;;;;;24.27;14.43;;;;;;;5.71;71.39;95776.78;10488394;28;20032;-79
2021/03/30 21:29:46;;;;;;;21.17;11.00;;;;;;;5.87;69.18;95778.88;10452684;28;20507;-78
2021/03/30 21:34:46;;;;;;;15.90;10.67;;;;;;;5.90;69.20;95777.63;10447945;28;20279;-79
2021/03/30 21:39:46;;;;;;;23.47;11.47;;;;;;;6.01;67.90;95770.81;10447788;28;20450;-79
2021/03/30 21:44:47;;;;;;;17.03;10.07;;;;;;;6.01;68.84;95762.81;10447332;28;20275;-79
2021/03/30 21:49:47;;;;;;;22.55;12.38;;;;;;;6.10;68.49;95759.66;10446420;28;20151;-79
2021/03/30 21:54:47;;;;;;;20.33;11.27;;;;;;;6.15;66.72;95764.31;10446576;28;20499;-79
2021/03/30 21:59:48;;;;;;;18.20;10.37;;;;;;;6.19;69.87;95768.19;10473663;28;20757;-79
2021/03/30 22:04:48;;;;;;;33.13;21.53;;;;;;;6.10;69.43;95773.00;10485518;28;20490;-79
2021/03/30 22:09:50;;;;;;;23.00;12.73;;;;;;;6.08;69.67;95759.03;10488411;28;20029;-80
2021/03/30 22:14:52;;;;;;;21.95;11.63;;;;;;;5.88;69.12;95761.03;10488874;28;20754;-79
2021/03/30 22:19:53;;;;;;;20.33;12.23;;;;;;;5.50;74.26;95765.44;10488097;28;20479;-79
2021/03/30 22:24:53;;;;;;;21.80;11.90;;;;;;;5.60;75.06;95765.75;10488297;28;20036;-80
2021/03/30 22:29:54;;;;;;;16.03;11.03;;;;;;;5.53;76.78;95769.50;10488560;28;20029;-80
2021/03/30 22:34:54;;;;;;;33.73;13.23;;;;;;;5.54;76.78;95766.63;10487813;28;20054;-80
2021/03/30 22:39:54;;;;;;;15.90;11.23;;;;;;;5.54;76.66;95769.28;10487205;28;20759;-80
2021/03/30 22:44:55;;;;;;;24.43;13.30;;;;;;;5.58;76.88;95772.31;10487539;28;20059;-79
2021/03/30 22:49:55;;;;;;;21.65;11.55;;;;;;;5.49;81.29;95777.13;10487400;28;20043;-79
2021/03/30 22:54:55;;;;;;;18.33;10.88;;;;;;;5.15;79.85;95781.84;10486986;28;20040;-81
2021/03/30 22:59:56;;;;;;;21.53;10.03;;;;;;;4.97;79.83;95780.66;10484758;28;20031;-78
2021/03/30 23:04:56;;;;;;;20.13;10.17;;;;;;;5.07;79.20;95790.06;10486819;28;20804;-82
2021/03/30 23:09:57;;;;;;;16.60;9.17;;;;;;;4.60;83.65;95787.56;10485488;28;20127;-79
2021/03/30 23:14:57;;;;;;;16.23;10.20;;;;;;;4.21;89.25;95790.09;10483988;28;20048;-79
2021/03/30 23:19:57;;;;;;;16.30;10.50;;;;;;;3.78;94.14;95781.72;10483796;28;20509;-80
2021/03/30 23:24:58;;;;;;;20.30;11.93;;;;;;;3.49;99.13;95787.25;10481267;28;20970;-80
2021/03/30 23:29:58;;;;;;;29.85;12.35;;;;;;;3.35;100.00;95783.75;10482694;28;20286;-79
2021/03/30 23:34:59;;;;;;;27.20;13.38;;;;;;;3.37;100.00;95780.88;10482814;28;20043;-80
2021/03/30 23:39:59;;;;;;;18.47;12.93;;;;;;;3.48;100.00;95779.47;10481698;28;20024;-80